ANR weather

Antwerp International Airport (Deurne)
Antwerp, Antwerp, Belgium

Public forecast

Using degrees Celsius for public forecast. Weather courtesy of forecast.io.

Current aviation weather report (METAR) for Antwerp International Airport (Deurne)

Retrieved 2019/10/19 03:20 UTC (0 seconds ago):

EBAW 190320Z AUTO 18008KT 9999 -RA FEW003/// BKN041/// 12/10 Q1004

Aviation forecast (TAF) for Antwerp International Airport (Deurne)

Forecast is more than 12 hours old.

Retrieved 2019/07/25 18:27 UTC (3 months ago):

TAF TAF EBAW 251700Z 2518/2606 11007KT CAVOK PROB30 TEMPO 2518/2520 VRB15G30KT 3500 SHRA TSRA